Archer, Nebraska
Current Conditions -  °F | °C
As of 9:53 AM on Friday 21 Nov 2014 (Local Time) from KGRI Reporting Station
Clear Clear  
Wind Chill: 20°   Ceiling: Unl
Heat Index: 29°   Visibility: 10mi
Dew Point: 20°   Wind: 10mph
Humidity: 69%   Direction: 180°S
Pressure: 30.12"   Gusts: NA
Location:  41.17°N, 98.14°W
Report Text: KGRI 211553Z 18009KT 10SM CLR M02/M07 A3012 RMK AO2 SLP227 T10171067
Loading
Personal Weather Stations






























Interactive Weather Map New forecast layout! Learn more

10-Day Weather Forecast

Advertisements
Track Severe Weather on mobile